Time;durP1;ratioP1;P1;durP2;ratioP2;P2;SDS_P1;SDS_P2;PMS_P1;PMS_P2;Temp;Humidity;BMP_temperature;BMP_pressure;BME280_temperature;BME280_humidity;BME280_pressure;Samples;Min_cycle;Max_cycle;Signal;HPM_P1;HPM_P2
2021/09/28 00:01:32;;;;;;;23.27;20.15;;;;;;;;;;5079727;28;20024;-80
2021/09/28 00:03:58;;;;;;;25.67;19.60;;;;;;;;;;5079581;28;20031;-80
2021/09/28 00:06:24;;;;;;;26.98;20.52;;;;;;;;;;5079415;28;20426;-80
2021/09/28 00:08:50;;;;;;;28.50;19.40;;;;;;;;;;5079577;28;20032;-80
2021/09/28 00:11:16;;;;;;;26.15;19.55;;;;;;;;;;5079714;28;20020;-80
2021/09/28 00:13:42;;;;;;;29.13;19.13;;;;;;;;;;5079272;28;20032;-81
2021/09/28 00:16:09;;;;;;;27.45;19.65;;;;;;;;;;5078237;28;20353;-81
2021/09/28 00:18:35;;;;;;;21.25;19.05;;;;;;;;;;5078338;28;20028;-81
2021/09/28 00:21:01;;;;;;;22.58;18.80;;;;;;;;;;5079204;28;20025;-81
2021/09/28 00:23:27;;;;;;;24.42;18.67;;;;;;;;;;5078921;28;20111;-81
2021/09/28 00:25:53;;;;;;;25.70;18.48;;;;;;;;;;5079167;28;20103;-81
2021/09/28 00:28:19;;;;;;;22.70;17.95;;;;;;;;;;5078918;28;20345;-81
2021/09/28 00:30:46;;;;;;;24.17;18.30;;;;;;;;;;5079011;28;20028;-81
2021/09/28 00:33:12;;;;;;;26.42;18.40;;;;;;;;;;5079094;28;20103;-81
2021/09/28 00:35:39;;;;;;;24.88;18.20;;;;;;;;;;5079192;28;20063;-81
2021/09/28 00:38:05;;;;;;;23.35;18.52;;;;;;;;;;5078926;28;20425;-81
2021/09/28 00:40:51;;;;;;;19.80;17.00;;;;;;;;;;5078790;28;20043;-81
2021/09/28 00:43:17;;;;;;;20.88;17.48;;;;;;;;;;5077726;28;20031;-80
2021/09/28 00:45:43;;;;;;;19.65;16.45;;;;;;;;;;5078965;28;20036;-80
2021/09/28 00:48:09;;;;;;;20.63;17.05;;;;;;;;;;5077757;28;20044;-80
2021/09/28 00:50:35;;;;;;;21.88;17.10;;;;;;;;;;5078731;28;20024;-80
2021/09/28 00:53:04;;;;;;;19.60;15.68;;;;;;;;;;5078759;28;20017;-80
2021/09/28 00:55:30;;;;;;;19.33;16.20;;;;;;;;;;5078495;28;20029;-80
2021/09/28 00:57:57;;;;;;;18.95;16.15;;;;;;;;;;5078534;28;20130;-81
2021/09/28 01:00:24;;;;;;;19.95;17.42;;;;;;;;;;5077635;28;20032;-80
2021/09/28 01:02:52;;;;;;;17.85;15.73;;;;;;;;;;5078477;28;20024;-80
2021/09/28 01:05:18;;;;;;;17.40;14.95;;;;;;;;;;5077394;28;20039;-80
2021/09/28 01:07:44;;;;;;;20.15;15.95;;;;;;;;;;5078463;28;20044;-80
2021/09/28 01:10:10;;;;;;;19.80;15.68;;;;;;;;;;5078222;28;20024;-79
2021/09/28 01:12:36;;;;;;;17.90;15.32;;;;;;;;;;5078465;28;20021;-80
2021/09/28 01:15:03;;;;;;;15.32;13.77;;;;;;;;;;5078207;28;21082;-79
2021/09/28 01:17:29;;;;;;;17.92;15.45;;;;;;;;;;5078210;28;20103;-80
2021/09/28 01:19:55;;;;;;;16.52;13.68;;;;;;;;;;5078171;28;20029;-80
2021/09/28 01:22:21;;;;;;;17.77;14.23;;;;;;;;;;5077123;28;20028;-81
2021/09/28 01:24:48;;;;;;;16.70;13.80;;;;;;;;;;5078144;28;20043;-81
2021/09/28 01:27:15;;;;;;;18.38;15.30;;;;;;;;;;5077724;28;20021;-81
2021/09/28 01:29:41;;;;;;;19.63;15.05;;;;;;;;;;5076531;28;20048;-81
2021/09/28 01:32:07;;;;;;;16.60;13.98;;;;;;;;;;5077562;28;20031;-81
2021/09/28 01:34:33;;;;;;;16.50;14.65;;;;;;;;;;5077670;28;20133;-80
2021/09/28 01:36:59;;;;;;;21.50;15.48;;;;;;;;;;5077757;28;20326;-81
2021/09/28 01:39:25;;;;;;;20.55;15.57;;;;;;;;;;5076820;28;20082;-80
2021/09/28 01:41:54;;;;;;;17.35;15.48;;;;;;;;;;5077497;28;20035;-81
2021/09/28 01:44:21;;;;;;;16.52;14.80;;;;;;;;;;5077530;28;20017;-80
2021/09/28 01:46:48;;;;;;;19.75;15.55;;;;;;;;;;5076541;28;20176;-81
2021/09/28 01:49:16;;;;;;;17.70;15.80;;;;;;;;;;5076521;28;20517;-81
2021/09/28 01:51:43;;;;;;;17.48;14.60;;;;;;;;;;5077704;28;20108;-81
2021/09/28 01:54:09;;;;;;;17.83;15.55;;;;;;;;;;5077652;28;20474;-81
2021/09/28 01:56:35;;;;;;;17.60;15.38;;;;;;;;;;5077368;28;20048;-81
2021/09/28 01:59:03;;;;;;;17.63;15.75;;;;;;;;;;5075933;28;20051;-82
2021/09/28 02:01:29;;;;;;;19.65;17.17;;;;;;;;;;5077307;28;20039;-81
2021/09/28 02:03:55;;;;;;;19.55;16.77;;;;;;;;;;5077220;28;20414;-82
2021/09/28 02:06:22;;;;;;;18.58;16.17;;;;;;;;;;5077314;28;20024;-81
2021/09/28 02:08:48;;;;;;;21.45;15.15;;;;;;;;;;5077400;28;20021;-81
2021/09/28 02:11:14;;;;;;;18.95;15.75;;;;;;;;;;5077340;28;20036;-81
2021/09/28 02:13:40;;;;;;;19.58;15.70;;;;;;;;;;5076310;28;20031;-81
2021/09/28 02:16:07;;;;;;;19.42;15.43;;;;;;;;;;5077450;28;20145;-81
2021/09/28 02:18:33;;;;;;;22.80;15.23;;;;;;;;;;5077333;28;20103;-81
2021/09/28 02:20:59;;;;;;;17.67;14.43;;;;;;;;;;5077084;28;20036;-81
2021/09/28 02:23:25;;;;;;;18.23;14.05;;;;;;;;;;5077070;28;20445;-81
2021/09/28 02:25:52;;;;;;;18.25;14.77;;;;;;;;;;5077151;28;20314;-81
2021/09/28 02:28:18;;;;;;;15.40;13.80;;;;;;;;;;5075710;28;20138;-81
2021/09/28 02:30:44;;;;;;;16.85;14.15;;;;;;;;;;5076792;28;20347;-80
2021/09/28 02:33:10;;;;;;;17.00;13.70;;;;;;;;;;5077457;28;20017;-80
2021/09/28 02:35:36;;;;;;;18.70;13.02;;;;;;;;;;5077358;28;20021;-80
2021/09/28 02:38:02;;;;;;;18.17;13.10;;;;;;;;;;5077025;28;20103;-80
2021/09/28 02:40:28;;;;;;;14.57;12.20;;;;;;;;;;5076924;28;20029;-81
2021/09/28 02:42:54;;;;;;;17.10;12.90;;;;;;;;;;5076891;28;20038;-81
2021/09/28 02:45:21;;;;;;;16.05;12.57;;;;;;;;;;5076898;28;20042;-81
2021/09/28 02:47:47;;;;;;;15.88;12.45;;;;;;;;;;5076895;28;20028;-81
2021/09/28 02:50:13;;;;;;;18.95;11.95;;;;;;;;;;5076829;28;20032;-81
2021/09/28 02:52:39;;;;;;;17.98;13.20;;;;;;;;;;5077074;28;20032;-80
2021/09/28 02:55:05;;;;;;;16.48;13.40;;;;;;;;;;5076959;28;20084;-81
2021/09/28 02:57:31;;;;;;;16.65;12.40;;;;;;;;;;5075473;28;20322;-81
2021/09/28 02:59:57;;;;;;;16.80;12.75;;;;;;;;;;5077041;28;20090;-80
2021/09/28 03:02:24;;;;;;;19.88;14.30;;;;;;;;;;5077028;28;20048;-80
2021/09/28 03:04:50;;;;;;;18.45;13.70;;;;;;;;;;5075696;28;20062;-79
2021/09/28 03:07:16;;;;;;;17.63;14.00;;;;;;;;;;5075631;28;20433;-80
2021/09/28 03:09:42;;;;;;;19.23;14.60;;;;;;;;;;5076591;28;20082;-80
2021/09/28 03:12:08;;;;;;;20.75;14.90;;;;;;;;;;5079702;28;20024;-81
2021/09/28 03:14:34;;;;;;;17.15;13.90;;;;;;;;;;5080568;28;20031;-81
2021/09/28 03:17:01;;;;;;;18.88;13.90;;;;;;;;;;5080745;28;20140;-81
2021/09/28 03:19:27;;;;;;;19.77;14.70;;;;;;;;;;5080600;28;20078;-81
2021/09/28 03:21:53;;;;;;;17.45;14.48;;;;;;;;;;5079390;28;20029;-81
2021/09/28 03:24:19;;;;;;;20.40;15.48;;;;;;;;;;5080315;28;20313;-81
2021/09/28 03:26:46;;;;;;;20.45;15.85;;;;;;;;;;5080200;28;20032;-81
2021/09/28 03:29:12;;;;;;;21.08;15.68;;;;;;;;;;5078777;28;20045;-81
2021/09/28 03:31:38;;;;;;;21.90;17.15;;;;;;;;;;5080059;28;20292;-81
2021/09/28 03:34:05;;;;;;;21.00;16.40;;;;;;;;;;5080123;28;20111;-81
2021/09/28 03:36:31;;;;;;;21.50;17.50;;;;;;;;;;5080072;28;20323;-81
2021/09/28 03:38:57;;;;;;;26.83;17.48;;;;;;;;;;5080098;28;20028;-81
2021/09/28 03:42:00;;;;;;;24.35;18.58;;;;;;;;;;5080319;28;20028;-81
2021/09/28 03:44:26;;;;;;;24.33;18.77;;;;;;;;;;5079789;28;20024;-81
2021/09/28 03:46:52;;;;;;;22.23;18.17;;;;;;;;;;5078879;28;20040;-80
2021/09/28 03:49:19;;;;;;;25.42;19.70;;;;;;;;;;5079860;28;20127;-81
2021/09/28 03:51:45;;;;;;;25.05;19.02;;;;;;;;;;5079822;28;20398;-81
2021/09/28 03:54:11;;;;;;;26.33;17.80;;;;;;;;;;5079944;28;20325;-80
2021/09/28 03:56:37;;;;;;;22.23;18.50;;;;;;;;;;5078659;28;20017;-81
2021/09/28 03:59:03;;;;;;;23.63;17.17;;;;;;;;;;5079617;28;20033;-81
2021/09/28 04:01:29;;;;;;;23.17;17.92;;;;;;;;;;5079725;28;20039;-81
2021/09/28 04:03:55;;;;;;;21.58;17.73;;;;;;;;;;5078666;28;20403;-81
2021/09/28 04:06:21;;;;;;;22.38;17.52;;;;;;;;;;5078528;28;20403;-81
2021/09/28 04:08:47;;;;;;;23.95;17.98;;;;;;;;;;5079232;28;20036;-81
2021/09/28 04:11:13;;;;;;;22.52;18.30;;;;;;;;;;5079337;28;20101;-81
2021/09/28 04:13:41;;;;;;;22.90;17.95;;;;;;;;;;5079558;28;20056;-81
2021/09/28 04:16:08;;;;;;;22.92;17.13;;;;;;;;;;5079376;28;20028;-80
2021/09/28 04:18:34;;;;;;;24.05;18.52;;;;;;;;;;5079700;28;20031;-80
2021/09/28 04:21:00;;;;;;;23.00;19.15;;;;;;;;;;5079424;28;20760;-88
2021/09/28 04:23:26;;;;;;;23.25;18.58;;;;;;;;;;5079078;28;20029;-89
2021/09/28 04:25:52;;;;;;;26.40;19.52;;;;;;;;;;5079829;28;20052;-88
2021/09/28 04:28:18;;;;;;;25.13;20.02;;;;;;;;;;5078843;28;20092;-88
2021/09/28 04:30:44;;;;;;;23.42;18.48;;;;;;;;;;5079489;28;20017;-88
2021/09/28 04:33:10;;;;;;;29.80;20.95;;;;;;;;;;5079748;28;20498;-88
2021/09/28 04:35:37;;;;;;;32.63;20.73;;;;;;;;;;5080017;28;20017;-88
2021/09/28 04:38:03;;;;;;;25.25;20.17;;;;;;;;;;5078807;28;20047;-88
2021/09/28 04:40:29;;;;;;;25.80;20.80;;;;;;;;;;5079791;28;20028;-88
2021/09/28 04:45:58;;;;;;;28.58;22.80;;;;;;;;;;5079822;28;20024;-88
2021/09/28 04:48:24;;;;;;;30.05;22.08;;;;;;;;;;5079682;28;20025;-88
2021/09/28 04:50:52;;;;;;;39.33;29.85;;;;;;;;;;5078223;28;20040;-88
2021/09/28 04:53:19;;;;;;;33.85;25.77;;;;;;;;;;5080942;28;20020;-88
2021/09/28 04:56:01;;;;;;;28.40;22.08;;;;;;;;;;5082468;28;20036;-87
2021/09/28 04:58:27;;;;;;;30.15;22.70;;;;;;;;;;5078804;28;20017;-90
2021/09/28 05:00:53;;;;;;;27.90;21.35;;;;;;;;;;5077868;28;20033;-78
2021/09/28 05:03:19;;;;;;;28.55;21.27;;;;;;;;;;5078298;28;20119;-77
2021/09/28 05:05:45;;;;;;;28.75;22.27;;;;;;;;;;5078207;28;20070;-77
2021/09/28 05:08:11;;;;;;;32.70;24.30;;;;;;;;;;5078568;28;20059;-77
2021/09/28 05:10:37;;;;;;;35.90;28.30;;;;;;;;;;5078281;28;20071;-77
2021/09/28 05:13:05;;;;;;;37.50;28.50;;;;;;;;;;5078283;28;20031;-77
2021/09/28 05:15:31;;;;;;;35.35;26.45;;;;;;;;;;5078304;28;20537;-77
2021/09/28 05:17:57;;;;;;;58.10;42.50;;;;;;;;;;5078244;28;20047;-78
2021/09/28 05:20:23;;;;;;;29.70;23.25;;;;;;;;;;5077046;28;20024;-78
2021/09/28 05:22:49;;;;;;;32.60;26.08;;;;;;;;;;5076829;28;20064;-77
2021/09/28 05:25:15;;;;;;;64.28;47.60;;;;;;;;;;5078202;28;20024;-77
2021/09/28 05:27:41;;;;;;;34.15;25.95;;;;;;;;;;5077787;28;20045;-78
2021/09/28 05:30:08;;;;;;;31.13;23.45;;;;;;;;;;5078039;28;20143;-78
2021/09/28 05:32:34;;;;;;;39.25;29.95;;;;;;;;;;5077800;28;20520;-77
2021/09/28 05:35:00;;;;;;;33.65;26.38;;;;;;;;;;5077543;28;20111;-78
2021/09/28 05:37:26;;;;;;;47.33;31.42;;;;;;;;;;5077678;28;20021;-78
2021/09/28 05:39:52;;;;;;;39.25;30.88;;;;;;;;;;5076786;28;20433;-78
2021/09/28 05:42:18;;;;;;;44.15;33.13;;;;;;;;;;5077476;28;20307;-77
2021/09/28 05:44:44;;;;;;;44.65;33.83;;;;;;;;;;5077488;28;20052;-78
2021/09/28 05:47:10;;;;;;;44.63;35.20;;;;;;;;;;5076783;28;20032;-78
2021/09/28 05:49:38;;;;;;;34.08;27.30;;;;;;;;;;5077507;28;20021;-78
2021/09/28 05:52:08;;;;;;;38.30;30.15;;;;;;;;;;5077580;28;20051;-78
2021/09/28 05:54:39;;;;;;;33.58;27.05;;;;;;;;;;5077577;28;20020;-78
2021/09/28 05:57:05;;;;;;;33.90;27.15;;;;;;;;;;5077532;28;20070;-78
2021/09/28 05:59:32;;;;;;;33.55;27.23;;;;;;;;;;5077314;28;20041;-77
2021/09/28 06:01:58;;;;;;;33.05;26.25;;;;;;;;;;5077420;28;20029;-78
2021/09/28 06:04:24;;;;;;;37.83;27.65;;;;;;;;;;5077571;28;20304;-78
2021/09/28 06:06:50;;;;;;;34.47;28.05;;;;;;;;;;5077458;28;20621;-77
2021/09/28 06:09:16;;;;;;;34.58;27.33;;;;;;;;;;5077230;28;20035;-78
2021/09/28 06:11:43;;;;;;;37.92;28.77;;;;;;;;;;5076129;28;20044;-77
2021/09/28 06:14:09;;;;;;;38.78;30.15;;;;;;;;;;5076093;28;20103;-78
2021/09/28 06:16:36;;;;;;;40.78;29.65;;;;;;;;;;5077226;28;20017;-78
2021/09/28 06:19:02;;;;;;;38.60;29.40;;;;;;;;;;5077065;28;20025;-78
2021/09/28 06:21:28;;;;;;;46.00;33.97;;;;;;;;;;5077177;28;20021;-78
2021/09/28 06:23:54;;;;;;;39.78;29.38;;;;;;;;;;5077359;28;20036;-78
2021/09/28 06:26:21;;;;;;;43.28;32.42;;;;;;;;;;5076937;28;20461;-78
2021/09/28 06:28:47;;;;;;;43.35;31.60;;;;;;;;;;5076523;28;20052;-78
2021/09/28 06:31:13;;;;;;;39.95;31.40;;;;;;;;;;5077065;28;20432;-78
2021/09/28 06:33:39;;;;;;;39.88;30.80;;;;;;;;;;5072898;28;20498;-77
2021/09/28 06:36:05;;;;;;;42.53;30.92;;;;;;;;;;5060409;28;20029;-77
2021/09/28 06:38:31;;;;;;;42.05;28.25;;;;;;;;;;5057094;28;20021;-78
2021/09/28 06:40:58;;;;;;;39.15;27.95;;;;;;;;;;5056070;28;20421;-78
2021/09/28 06:43:24;;;;;;;39.05;28.75;;;;;;;;;;5056906;28;20075;-78
2021/09/28 06:45:50;;;;;;;35.35;26.02;;;;;;;;;;5060011;28;20048;-78
2021/09/28 06:48:18;;;;;;;42.63;27.50;;;;;;;;;;5060025;28;20021;-78
2021/09/28 06:50:44;;;;;;;37.08;27.13;;;;;;;;;;5060930;28;20100;-78
2021/09/28 06:53:10;;;;;;;41.47;27.30;;;;;;;;;;5060513;28;20094;-77
2021/09/28 06:55:37;;;;;;;41.42;28.63;;;;;;;;;;5060016;28;20315;-78
2021/09/28 06:58:04;;;;;;;39.33;27.50;;;;;;;;;;5060569;28;20415;-78
2021/09/28 07:00:36;;;;;;;36.28;27.33;;;;;;;;;;5059628;28;20037;-78
2021/09/28 07:03:02;;;;;;;36.85;27.05;;;;;;;;;;5060672;28;20029;-78
2021/09/28 07:05:28;;;;;;;39.17;27.27;;;;;;;;;;5060750;28;20037;-78
2021/09/28 07:07:54;;;;;;;39.50;28.27;;;;;;;;;;5060873;28;20021;-78
2021/09/28 07:10:20;;;;;;;39.72;28.13;;;;;;;;;;5060662;28;20049;-78
2021/09/28 07:12:46;;;;;;;39.75;28.70;;;;;;;;;;5060507;28;20025;-77
2021/09/28 07:15:12;;;;;;;41.22;27.48;;;;;;;;;;5060535;28;20024;-77
2021/09/28 07:17:39;;;;;;;40.60;28.02;;;;;;;;;;5060468;28;20024;-78
2021/09/28 07:20:05;;;;;;;44.05;27.17;;;;;;;;;;5060285;28;20029;-77
2021/09/28 07:22:32;;;;;;;40.58;27.75;;;;;;;;;;5060471;28;20111;-78
2021/09/28 07:24:58;;;;;;;39.38;27.10;;;;;;;;;;5060462;28;20094;-78
2021/09/28 07:27:24;;;;;;;42.33;29.42;;;;;;;;;;5059942;28;20021;-77
2021/09/28 07:29:51;;;;;;;39.42;28.10;;;;;;;;;;5059940;28;20053;-78
2021/09/28 07:32:17;;;;;;;41.78;28.20;;;;;;;;;;5060349;28;20040;-77
2021/09/28 07:34:44;;;;;;;41.95;28.50;;;;;;;;;;5060165;28;20021;-78
2021/09/28 07:37:10;;;;;;;42.38;28.33;;;;;;;;;;5060240;28;20411;-78
2021/09/28 07:39:36;;;;;;;38.78;27.77;;;;;;;;;;5060333;28;20040;-77
2021/09/28 07:42:03;;;;;;;43.42;27.92;;;;;;;;;;5059779;28;20017;-77
2021/09/28 07:44:29;;;;;;;41.13;28.63;;;;;;;;;;5058803;28;20029;-77
2021/09/28 07:46:55;;;;;;;44.10;26.65;;;;;;;;;;5060065;28;20307;-78
2021/09/28 07:49:21;;;;;;;37.03;26.80;;;;;;;;;;5058689;28;20040;-81
2021/09/28 07:51:48;;;;;;;42.13;26.33;;;;;;;;;;5059794;28;20354;-78
2021/09/28 07:54:15;;;;;;;35.67;26.73;;;;;;;;;;5059589;28;20024;-78
2021/09/28 07:56:42;;;;;;;39.80;25.23;;;;;;;;;;5058911;28;20055;-78
2021/09/28 07:59:08;;;;;;;40.25;27.13;;;;;;;;;;5059776;28;20053;-77
2021/09/28 08:01:35;;;;;;;37.80;26.23;;;;;;;;;;5059713;28;20033;-78
2021/09/28 08:04:02;;;;;;;38.83;26.10;;;;;;;;;;5059524;28;20025;-77
2021/09/28 08:06:28;;;;;;;39.05;25.33;;;;;;;;;;5059421;28;20368;-78
2021/09/28 08:08:54;;;;;;;41.15;26.15;;;;;;;;;;5058209;28;20323;-78
2021/09/28 08:11:20;;;;;;;40.35;26.80;;;;;;;;;;5059596;28;20021;-78
2021/09/28 08:13:46;;;;;;;39.83;26.27;;;;;;;;;;5057905;28;20457;-78
2021/09/28 08:16:13;;;;;;;37.67;26.27;;;;;;;;;;5071531;28;20067;-77
2021/09/28 08:18:39;;;;;;;39.60;26.25;;;;;;;;;;5077800;28;20024;-77
2021/09/28 08:21:05;;;;;;;37.83;26.00;;;;;;;;;;5078700;28;20029;-78
2021/09/28 08:23:31;;;;;;;35.95;25.67;;;;;;;;;;5078997;28;20032;-77
2021/09/28 08:31:09;;;;;;;33.67;24.48;;;;;;;;;;5078939;28;20349;-77
2021/09/28 08:33:36;;;;;;;36.72;24.13;;;;;;;;;;5078846;28;20096;-84
2021/09/28 08:36:03;;;;;;;38.72;24.83;;;;;;;;;;5078774;28;20402;-78
2021/09/28 08:38:29;;;;;;;37.08;25.00;;;;;;;;;;5078562;28;20032;-78
2021/09/28 08:40:56;;;;;;;35.67;24.05;;;;;;;;;;5078991;28;20445;-78
2021/09/28 08:43:22;;;;;;;34.20;24.23;;;;;;;;;;5078491;28;20402;-78
2021/09/28 08:45:48;;;;;;;35.35;23.88;;;;;;;;;;5078271;28;20318;-78
2021/09/28 08:48:15;;;;;;;35.92;25.17;;;;;;;;;;5076187;28;20016;-77
2021/09/28 08:50:44;;;;;;;33.55;23.88;;;;;;;;;;5076892;28;20125;-77
2021/09/28 08:53:13;;;;;;;35.75;23.92;;;;;;;;;;5077219;28;20033;-78
2021/09/28 08:55:39;;;;;;;37.60;24.50;;;;;;;;;;5078095;28;20529;-77
2021/09/28 08:58:12;;;;;;;34.80;23.92;;;;;;;;;;5077879;28;20411;-78
2021/09/28 09:00:38;;;;;;;34.60;24.65;;;;;;;;;;5078169;28;20032;-77
2021/09/28 09:03:04;;;;;;;37.47;24.25;;;;;;;;;;5076948;28;20508;-77
2021/09/28 09:05:31;;;;;;;37.00;24.17;;;;;;;;;;5077889;28;20437;-78
2021/09/28 09:07:58;;;;;;;38.58;24.52;;;;;;;;;;5075936;28;20052;-78
2021/09/28 09:10:32;;;;;;;37.97;25.15;;;;;;;;;;5077770;28;20047;-77
2021/09/28 09:12:58;;;;;;;52.25;29.38;;;;;;;;;;5077881;28;20411;-77
2021/09/28 09:15:29;;;;;;;40.40;25.83;;;;;;;;;;5077850;28;20075;-77
2021/09/28 09:17:56;;;;;;;57.78;31.35;;;;;;;;;;5077853;28;20021;-78
2021/09/28 09:20:24;;;;;;;66.30;34.25;;;;;;;;;;5078229;28;20104;-77
2021/09/28 09:22:50;;;;;;;52.72;29.33;;;;;;;;;;5076978;28;20361;-78
2021/09/28 09:25:19;;;;;;;46.60;29.40;;;;;;;;;;5078218;28;20021;-77
2021/09/28 09:27:45;;;;;;;40.75;25.85;;;;;;;;;;5077711;28;20033;-77
2021/09/28 09:30:21;;;;;;;41.10;25.33;;;;;;;;;;5077756;28;20032;-77
2021/09/28 09:32:53;;;;;;;40.80;24.83;;;;;;;;;;5077855;28;20103;-77
2021/09/28 09:35:29;;;;;;;37.20;25.30;;;;;;;;;;5077116;28;20020;-77
2021/09/28 09:38:20;;;;;;;37.92;24.10;;;;;;;;;;5077715;28;20407;-77
2021/09/28 09:40:47;;;;;;;33.22;24.25;;;;;;;;;;5077644;28;20029;-78
2021/09/28 09:43:15;;;;;;;39.55;24.65;;;;;;;;;;5077526;28;20028;-77
2021/09/28 09:45:41;;;;;;;34.83;23.08;;;;;;;;;;5077655;28;20021;-78
2021/09/28 09:48:26;;;;;;;43.63;25.02;;;;;;;;;;5077545;28;20145;-77
2021/09/28 09:51:03;;;;;;;38.38;24.08;;;;;;;;;;5077483;28;20055;-77
2021/09/28 09:53:29;;;;;;;38.03;25.60;;;;;;;;;;5076401;28;20035;-77
2021/09/28 09:55:56;;;;;;;34.80;24.23;;;;;;;;;;5075895;28;20054;-77
2021/09/28 09:58:23;;;;;;;34.78;24.58;;;;;;;;;;5077059;28;20060;-77
2021/09/28 10:00:52;;;;;;;35.88;24.38;;;;;;;;;;5077664;28;20036;-78
2021/09/28 10:03:18;;;;;;;34.20;25.08;;;;;;;;;;5077276;28;20407;-77
2021/09/28 10:05:45;;;;;;;33.42;23.83;;;;;;;;;;5076327;28;20028;-78
2021/09/28 10:08:13;;;;;;;32.72;23.45;;;;;;;;;;5077260;28;20028;-78
2021/09/28 10:10:40;;;;;;;30.73;22.55;;;;;;;;;;5077291;28;20025;-78
2021/09/28 10:13:07;;;;;;;34.53;23.83;;;;;;;;;;5077491;28;20021;-77
2021/09/28 10:15:34;;;;;;;36.10;24.75;;;;;;;;;;5059908;28;20027;-78
2021/09/28 10:18:01;;;;;;;33.78;23.73;;;;;;;;;;5077228;28;20024;-78
2021/09/28 10:20:29;;;;;;;33.03;22.20;;;;;;;;;;5077037;28;20021;-78
2021/09/28 10:22:55;;;;;;;33.00;22.95;;;;;;;;;;5077456;28;20330;-77
2021/09/28 10:25:21;;;;;;;31.98;23.42;;;;;;;;;;5076141;28;20107;-78
2021/09/28 10:27:48;;;;;;;35.08;24.85;;;;;;;;;;5076904;28;20464;-78
2021/09/28 10:30:34;;;;;;;30.95;23.23;;;;;;;;;;5076990;28;20049;-78
2021/09/28 10:33:05;;;;;;;30.98;23.38;;;;;;;;;;5076813;28;20107;-77
2021/09/28 10:35:31;;;;;;;29.02;22.52;;;;;;;;;;5076937;28;20012;-77
2021/09/28 10:37:59;;;;;;;31.85;23.65;;;;;;;;;;5076955;28;20071;-78
2021/09/28 10:40:29;;;;;;;30.35;23.58;;;;;;;;;;5076023;28;20020;-78
2021/09/28 10:42:59;;;;;;;36.28;25.45;;;;;;;;;;5076255;28;20041;-78
2021/09/28 10:45:31;;;;;;;34.20;25.40;;;;;;;;;;5077009;28;20029;-78
2021/09/28 10:48:06;;;;;;;31.70;24.65;;;;;;;;;;5076829;28;20035;-78
2021/09/28 10:50:37;;;;;;;36.05;25.88;;;;;;;;;;5076882;28;20337;-77
2021/09/28 10:53:07;;;;;;;35.17;26.17;;;;;;;;;;5075829;28;20017;-78
2021/09/28 10:55:40;;;;;;;36.65;26.83;;;;;;;;;;5076844;28;20432;-78
2021/09/28 10:58:12;;;;;;;40.33;28.83;;;;;;;;;;5076821;28;20034;-78
2021/09/28 11:00:38;;;;;;;;;;;;;;;;;;5077089;28;20357;-78
2021/09/28 11:03:04;;;;;;;40.13;27.65;;;;;;;;;;5076543;28;19905;-77
2021/09/28 11:05:42;;;;;;;38.65;28.85;;;;;;;;;;5076933;28;20292;-77
2021/09/28 11:08:12;;;;;;;46.58;34.83;;;;;;;;;;5076512;28;20074;-77
2021/09/28 11:10:39;;;;;;;40.00;31.15;;;;;;;;;;5076491;28;20056;-78
2021/09/28 11:13:06;;;;;;;42.55;30.85;;;;;;;;;;5076567;28;20349;-77
2021/09/28 11:15:33;;;;;;;39.47;30.08;;;;;;;;;;5076519;28;20020;-77
2021/09/28 11:18:12;;;;;;;38.90;30.20;;;;;;;;;;5076573;28;20028;-77
2021/09/28 11:20:39;;;;;;;38.22;28.92;;;;;;;;;;5075467;28;20463;-77
2021/09/28 11:23:10;;;;;;;40.25;30.33;;;;;;;;;;5076571;28;20032;-77
2021/09/28 11:25:36;;;;;;;38.47;30.67;;;;;;;;;;5075514;28;20356;-77
2021/09/28 11:28:08;;;;;;;37.85;30.10;;;;;;;;;;5075995;28;20162;-77
2021/09/28 11:30:35;;;;;;;42.33;31.67;;;;;;;;;;5076494;28;20078;-77
2021/09/28 11:33:03;;;;;;;41.03;29.95;;;;;;;;;;5079072;28;20119;-77
2021/09/28 11:35:29;;;;;;;39.67;31.30;;;;;;;;;;5080253;28;20342;-77
2021/09/28 11:37:59;;;;;;;38.97;30.42;;;;;;;;;;5080046;28;20023;-77
2021/09/28 11:40:30;;;;;;;37.05;30.30;;;;;;;;;;5080005;28;20148;-77
2021/09/28 11:42:57;;;;;;;35.25;28.33;;;;;;;;;;5079906;28;20031;-77
2021/09/28 11:45:29;;;;;;;33.40;27.17;;;;;;;;;;5080195;28;20025;-78
2021/09/28 11:47:56;;;;;;;41.65;31.55;;;;;;;;;;5080003;28;20031;-77
2021/09/28 11:50:26;;;;;;;36.53;28.10;;;;;;;;;;5078461;28;20426;-78
2021/09/28 11:52:52;;;;;;;34.65;29.02;;;;;;;;;;5078996;28;20414;-78
2021/09/28 11:55:25;;;;;;;36.92;28.90;;;;;;;;;;5078632;28;20024;-77
2021/09/28 11:57:51;;;;;;;36.28;30.30;;;;;;;;;;5079509;28;20021;-77
2021/09/28 12:00:17;;;;;;;35.42;29.95;;;;;;;;;;5079900;28;20040;-77
2021/09/28 12:02:43;;;;;;;36.60;29.67;;;;;;;;;;5079602;28;20115;-77
2021/09/28 12:05:26;;;;;;;36.67;29.70;;;;;;;;;;5079259;28;20029;-77
2021/09/28 12:10:19;;;;;;;35.03;29.95;;;;;;;;;;5079338;28;20031;-77
2021/09/28 12:12:45;;;;;;;38.40;31.50;;;;;;;;;;5079108;28;20020;-77
2021/09/28 12:15:12;;;;;;;37.20;30.70;;;;;;;;;;5078316;28;20283;-77
2021/09/28 12:17:41;;;;;;;36.67;31.63;;;;;;;;;;5079345;28;20044;-78
2021/09/28 12:20:21;;;;;;;36.53;32.13;;;;;;;;;;5079417;28;20025;-78
2021/09/28 12:22:52;;;;;;;38.92;32.67;;;;;;;;;;5079534;28;20101;-77
2021/09/28 12:25:20;;;;;;;36.03;31.40;;;;;;;;;;5079521;28;20016;-77
2021/09/28 12:27:52;;;;;;;38.28;31.13;;;;;;;;;;5078898;28;20036;-77
2021/09/28 12:30:18;;;;;;;38.97;32.78;;;;;;;;;;5078239;28;20040;-77
2021/09/28 12:32:48;;;;;;;40.80;33.80;;;;;;;;;;5079276;28;20063;-77
2021/09/28 12:35:16;;;;;;;39.00;33.15;;;;;;;;;;5078989;28;20021;-78
2021/09/28 12:37:46;;;;;;;38.45;33.28;;;;;;;;;;5078882;28;20410;-78
2021/09/28 12:40:13;;;;;;;35.80;31.70;;;;;;;;;;5079053;28;20119;-77
2021/09/28 12:42:40;;;;;;;38.13;33.22;;;;;;;;;;5078710;28;20028;-77
2021/09/28 12:45:13;;;;;;;41.60;33.75;;;;;;;;;;5078803;28;20398;-77
2021/09/28 12:47:40;;;;;;;39.75;34.40;;;;;;;;;;5078756;28;20033;-77
2021/09/28 12:50:21;;;;;;;40.20;33.85;;;;;;;;;;5077623;28;20115;-77
2021/09/28 12:52:47;;;;;;;51.28;39.35;;;;;;;;;;5060894;28;20029;-77
2021/09/28 12:55:14;;;;;;;44.00;37.85;;;;;;;;;;5078437;28;20020;-77
2021/09/28 12:57:40;;;;;;;45.28;34.28;;;;;;;;;;5077529;28;20088;-77
2021/09/28 13:00:07;;;;;;;40.28;33.67;;;;;;;;;;5078581;28;20330;-78
2021/09/28 13:02:33;;;;;;;41.22;32.42;;;;;;;;;;5078290;28;20426;-77
2021/09/28 13:05:02;;;;;;;35.90;32.03;;;;;;;;;;5078344;28;20029;-77
2021/09/28 13:07:28;;;;;;;37.22;33.13;;;;;;;;;;5078273;28;20446;-77
2021/09/28 13:09:54;;;;;;;40.10;33.05;;;;;;;;;;5078471;28;20079;-77
2021/09/28 13:12:20;;;;;;;37.60;31.30;;;;;;;;;;5078294;28;20020;-77
2021/09/28 13:14:47;;;;;;;35.10;30.42;;;;;;;;;;5076926;28;20029;-77
2021/09/28 13:17:13;;;;;;;36.28;30.27;;;;;;;;;;5077024;28;20327;-77
2021/09/28 13:19:39;;;;;;;39.05;30.35;;;;;;;;;;5078384;28;20031;-77
2021/09/28 13:22:06;;;;;;;36.40;30.48;;;;;;;;;;5078072;28;20429;-77
2021/09/28 13:24:32;;;;;;;37.83;31.58;;;;;;;;;;5076993;28;20078;-78
2021/09/28 13:26:58;;;;;;;33.97;27.33;;;;;;;;;;5077835;28;20103;-77
2021/09/28 13:29:24;;;;;;;31.63;26.95;;;;;;;;;;5077532;28;20041;-78
2021/09/28 13:31:50;;;;;;;29.42;26.17;;;;;;;;;;5077589;28;20066;-77
2021/09/28 13:34:16;;;;;;;30.02;26.50;;;;;;;;;;5077783;28;20025;-78
2021/09/28 13:36:42;;;;;;;30.23;25.38;;;;;;;;;;5077979;28;20310;-77
2021/09/28 13:39:08;;;;;;;29.65;25.70;;;;;;;;;;5076769;28;20036;-77
2021/09/28 13:41:35;;;;;;;30.20;25.42;;;;;;;;;;5077782;28;20017;-77
2021/09/28 13:44:02;;;;;;;31.50;25.25;;;;;;;;;;5077717;28;20411;-77
2021/09/28 13:46:28;;;;;;;33.22;25.65;;;;;;;;;;5077655;28;20032;-77
2021/09/28 13:48:54;;;;;;;34.40;25.20;;;;;;;;;;5077584;28;20024;-78
2021/09/28 13:51:20;;;;;;;28.90;25.25;;;;;;;;;;5077448;28;20028;-77
2021/09/28 13:53:46;;;;;;;35.47;24.63;;;;;;;;;;5077195;28;20027;-77
2021/09/28 13:56:13;;;;;;;30.67;24.98;;;;;;;;;;5077090;28;20024;-78
2021/09/28 13:58:39;;;;;;;27.90;24.83;;;;;;;;;;5077625;28;20387;-78
2021/09/28 14:01:05;;;;;;;29.42;25.55;;;;;;;;;;5077344;28;20116;-77
2021/09/28 14:03:32;;;;;;;28.50;25.40;;;;;;;;;;5077297;28;20086;-78
2021/09/28 14:05:58;;;;;;;32.20;25.13;;;;;;;;;;5077336;28;20056;-77
2021/09/28 14:08:24;;;;;;;32.13;24.40;;;;;;;;;;5077342;28;20021;-77
2021/09/28 14:10:50;;;;;;;33.22;24.98;;;;;;;;;;5077060;28;20071;-77
2021/09/28 14:13:16;;;;;;;30.35;25.52;;;;;;;;;;5076239;28;20024;-77
2021/09/28 14:15:42;;;;;;;32.03;25.02;;;;;;;;;;5077249;28;20041;-78
2021/09/28 14:18:08;;;;;;;32.72;26.00;;;;;;;;;;5076395;28;20051;-78
2021/09/28 14:20:34;;;;;;;33.75;26.95;;;;;;;;;;5075915;28;20144;-77
2021/09/28 14:23:00;;;;;;;33.70;26.17;;;;;;;;;;5077192;28;20032;-77
2021/09/28 14:25:26;;;;;;;32.75;27.30;;;;;;;;;;5076160;28;20429;-78
2021/09/28 14:27:52;;;;;;;34.53;27.45;;;;;;;;;;5076974;28;20032;-77
2021/09/28 14:30:19;;;;;;;32.88;25.38;;;;;;;;;;5076897;28;20033;-78